createdAt,value
2022-10-13T00:00:10.294Z,15.555
2022-10-13T00:01:10.310Z,15.565
2022-10-13T00:02:11.255Z,15.56
2022-10-13T00:03:11.070Z,15.56
2022-10-13T00:04:09.732Z,15.57
2022-10-13T00:05:11.624Z,15.56
2022-10-13T00:06:11.051Z,15.545
2022-10-13T00:07:10.785Z,15.51
2022-10-13T00:08:11.122Z,15.53
2022-10-13T00:09:10.223Z,15.51
2022-10-13T00:10:11.530Z,15.505
2022-10-13T00:11:10.798Z,15.53
2022-10-13T00:12:10.716Z,15.515
2022-10-13T00:13:11.474Z,15.485
2022-10-13T00:14:10.779Z,15.485
2022-10-13T00:15:11.159Z,15.505
2022-10-13T00:16:11.400Z,15.49
2022-10-13T00:17:11.654Z,15.485
2022-10-13T00:18:15.692Z,15.475
2022-10-13T00:19:14.885Z,15.5
2022-10-13T00:20:11.586Z,15.495
2022-10-13T00:21:10.448Z,15.49
2022-10-13T00:22:11.956Z,15.48
2022-10-13T00:23:11.298Z,15.485
2022-10-13T00:24:10.023Z,15.475
2022-10-13T00:25:11.221Z,15.46
2022-10-13T00:26:10.319Z,15.465
2022-10-13T00:27:10.318Z,15.49
2022-10-13T00:28:11.564Z,15.485
2022-10-13T00:29:10.104Z,15.485
2022-10-13T00:30:11.132Z,15.49
2022-10-13T00:31:11.294Z,15.495
2022-10-13T00:32:10.316Z,15.49
2022-10-13T00:33:10.714Z,15.5
2022-10-13T00:34:10.360Z,15.515
2022-10-13T00:35:10.616Z,15.515
2022-10-13T00:36:10.252Z,15.525
2022-10-13T00:37:10.799Z,15.545
2022-10-13T00:38:10.676Z,15.535
2022-10-13T00:39:10.102Z,15.525
2022-10-13T00:40:11.459Z,15.53
2022-10-13T00:41:10.546Z,15.505
2022-10-13T00:42:11.539Z,15.525
2022-10-13T00:43:11.564Z,15.545
2022-10-13T00:44:10.204Z,15.55
2022-10-13T00:45:12.178Z,15.52
2022-10-13T00:46:10.978Z,15.515
2022-10-13T00:47:11.099Z,15.51
2022-10-13T00:48:12.119Z,15.54
2022-10-13T00:49:10.451Z,15.57
2022-10-13T00:50:09.879Z,15.545
2022-10-13T00:51:11.148Z,15.565
2022-10-13T00:52:11.487Z,15.565
2022-10-13T00:53:10.851Z,15.575
2022-10-13T00:54:10.763Z,15.58
2022-10-13T00:55:10.923Z,15.61
2022-10-13T00:56:10.610Z,15.5818
2022-10-13T00:57:11.449Z,15.646
2022-10-13T00:58:11.090Z,15.645
2022-10-13T00:59:10.030Z,15.643
2022-10-13T01:00:11.475Z,15.6207
2022-10-13T01:01:11.422Z,15.651
2022-10-13T01:02:10.744Z,15.637
2022-10-13T01:03:11.223Z,15.652
2022-10-13T01:04:10.203Z,15.639
2022-10-13T01:05:10.822Z,15.649
2022-10-13T01:06:11.317Z,15.626
2022-10-13T01:07:10.997Z,15.6258
2022-10-13T01:08:10.618Z,15.649
2022-10-13T01:09:10.720Z,15.66
2022-10-13T01:10:10.914Z,15.655
2022-10-13T01:11:10.866Z,15.66
2022-10-13T01:12:10.865Z,15.637
2022-10-13T01:13:10.590Z,15.6316
2022-10-13T01:14:10.963Z,15.637
2022-10-13T01:15:11.423Z,15.672
2022-10-13T01:16:10.776Z,15.683
2022-10-13T01:17:11.907Z,15.672
2022-10-13T01:18:11.426Z,15.672
2022-10-13T01:19:10.075Z,15.71
2022-10-13T01:20:11.706Z,15.7
2022-10-13T01:21:11.775Z,15.693
2022-10-13T01:22:10.475Z,15.7
2022-10-13T01:23:11.344Z,15.6841
2022-10-13T01:24:10.266Z,15.7
2022-10-13T01:25:10.883Z,15.6841
2022-10-13T01:26:11.534Z,15.688
2022-10-13T01:27:10.607Z,15.71
2022-10-13T01:28:11.115Z,15.705
2022-10-13T01:29:10.916Z,15.7
2022-10-13T01:30:11.081Z,15.7
2022-10-13T01:31:10.963Z,15.715
2022-10-13T01:32:10.970Z,15.705
2022-10-13T01:33:10.608Z,15.7
2022-10-13T01:34:09.961Z,15.705
2022-10-13T01:35:11.767Z,15.7
2022-10-13T01:36:11.446Z,15.71
2022-10-13T01:37:10.855Z,15.71
2022-10-13T01:38:11.398Z,15.72
2022-10-13T01:39:10.474Z,15.69
2022-10-13T01:40:10.113Z,15.7
2022-10-13T01:41:11.054Z,15.699
2022-10-13T01:42:11.296Z,15.6891
2022-10-13T01:43:10.649Z,15.705
2022-10-13T01:44:10.340Z,15.69
2022-10-13T01:45:11.102Z,15.672
2022-10-13T01:46:10.917Z,15.666
2022-10-13T01:47:11.064Z,15.672
2022-10-13T01:48:10.600Z,15.672
2022-10-13T01:49:10.995Z,15.695
2022-10-13T01:50:11.641Z,15.6891
2022-10-13T01:51:11.162Z,15.705
2022-10-13T01:52:11.459Z,15.71
2022-10-13T01:53:11.483Z,15.725
2022-10-13T01:54:10.197Z,15.74
2022-10-13T01:55:11.823Z,15.735
2022-10-13T01:56:10.799Z,15.75
2022-10-13T01:57:10.904Z,15.745
2022-10-13T01:58:11.571Z,15.755
2022-10-13T01:59:10.482Z,15.755
2022-10-13T02:00:11.121Z,15.745
2022-10-13T02:01:11.476Z,15.745
2022-10-13T02:02:11.127Z,15.735
2022-10-13T02:03:10.683Z,15.745
2022-10-13T02:04:10.218Z,15.74
2022-10-13T02:05:10.942Z,15.76
2022-10-13T02:06:10.670Z,15.74
2022-10-13T02:07:10.817Z,15.765
2022-10-13T02:08:10.762Z,15.73
2022-10-13T02:09:10.885Z,15.735
2022-10-13T02:10:10.817Z,15.74
2022-10-13T02:11:11.743Z,15.77
2022-10-13T02:12:10.305Z,15.765
2022-10-13T02:13:10.380Z,15.755
2022-10-13T02:14:10.869Z,15.77
2022-10-13T02:15:11.582Z,15.791
2022-10-13T02:16:10.067Z,15.8227
2022-10-13T02:17:11.425Z,15.827
2022-10-13T02:18:11.195Z,15.839
2022-10-13T02:19:09.941Z,15.848
2022-10-13T02:20:11.030Z,15.863
2022-10-13T02:21:10.864Z,15.866
2022-10-13T02:22:11.716Z,15.858
2022-10-13T02:23:10.996Z,15.872
2022-10-13T02:24:09.948Z,15.88
2022-10-13T02:25:11.882Z,15.8846
2022-10-13T02:26:11.298Z,15.88
2022-10-13T02:27:10.760Z,15.8791
2022-10-13T02:28:11.487Z,15.8741
2022-10-13T02:29:09.824Z,15.862
2022-10-13T02:30:10.250Z,15.862
2022-10-13T02:31:11.676Z,15.867
2022-10-13T02:32:11.159Z,15.885
2022-10-13T02:33:10.587Z,15.8791
2022-10-13T02:34:10.646Z,15.8741
2022-10-13T02:35:10.964Z,15.8741
2022-10-13T02:36:10.740Z,15.8741
2022-10-13T02:37:11.309Z,15.862
2022-10-13T02:38:10.751Z,15.845
2022-10-13T02:39:09.953Z,15.856
2022-10-13T02:40:11.554Z,15.862
2022-10-13T02:41:11.102Z,15.856
2022-10-13T02:42:11.420Z,15.845
2022-10-13T02:43:11.537Z,15.845
2022-10-13T02:44:10.312Z,15.805
2022-10-13T02:45:11.543Z,15.839
2022-10-13T02:46:11.244Z,15.8158
2022-10-13T02:47:10.896Z,15.833
2022-10-13T02:48:11.624Z,15.845
2022-10-13T02:49:10.547Z,15.833
2022-10-13T02:50:17.320Z,15.822
2022-10-13T02:51:11.404Z,15.8158
2022-10-13T02:52:10.717Z,15.839
2022-10-13T02:53:11.675Z,15.845
2022-10-13T02:54:10.589Z,15.839
2022-10-13T02:55:10.851Z,15.861
2022-10-13T02:56:11.454Z,15.85
2022-10-13T02:57:10.555Z,15.8216
2022-10-13T02:58:10.427Z,15.845
2022-10-13T02:59:10.713Z,15.856
2022-10-13T03:00:11.316Z,15.884
2022-10-13T03:01:10.515Z,15.885
2022-10-13T03:02:11.025Z,15.873
2022-10-13T03:03:10.852Z,15.885
2022-10-13T03:04:10.687Z,15.89
2022-10-13T03:05:10.803Z,15.9
2022-10-13T03:06:11.528Z,15.925
2022-10-13T03:07:11.412Z,15.925
2022-10-13T03:08:10.872Z,15.9
2022-10-13T03:09:10.725Z,15.925
2022-10-13T03:10:11.430Z,15.93
2022-10-13T03:11:10.991Z,15.945
2022-10-13T03:12:11.964Z,15.97
2022-10-13T03:13:10.728Z,15.955
2022-10-13T03:14:10.388Z,15.955
2022-10-13T03:15:11.063Z,15.95
2022-10-13T03:16:10.556Z,15.95
2022-10-13T03:17:13.498Z,15.975
2022-10-13T03:18:10.904Z,15.955
2022-10-13T03:19:10.363Z,15.955
2022-10-13T03:20:12.014Z,15.97
2022-10-13T03:21:11.050Z,15.985
2022-10-13T03:22:10.686Z,16
2022-10-13T03:23:11.571Z,15.98
2022-10-13T03:24:10.423Z,15.995
2022-10-13T03:25:11.018Z,15.995
2022-10-13T03:26:11.401Z,16.005
2022-10-13T03:27:10.699Z,15.975
2022-10-13T03:28:11.681Z,15.985
2022-10-13T03:29:10.656Z,15.975
2022-10-13T03:30:10.591Z,15.98
2022-10-13T03:31:11.197Z,15.995
2022-10-13T03:32:10.722Z,16
2022-10-13T03:33:10.801Z,15.955
2022-10-13T03:34:10.794Z,15.95
2022-10-13T03:35:11.079Z,15.94
2022-10-13T03:36:10.274Z,15.93
2022-10-13T03:37:10.951Z,15.905
2022-10-13T03:38:11.197Z,15.8791
2022-10-13T03:39:10.138Z,15.8672
2022-10-13T03:40:11.552Z,15.858
2022-10-13T03:41:11.218Z,15.85
2022-10-13T03:42:10.558Z,15.841
2022-10-13T03:43:11.471Z,15.8107
2022-10-13T03:44:10.277Z,15.827
2022-10-13T03:45:10.304Z,15.8227
2022-10-13T03:46:11.453Z,15.8107
2022-10-13T03:47:10.817Z,15.81
2022-10-13T03:48:10.021Z,15.805
2022-10-13T03:49:10.631Z,15.79
2022-10-13T03:50:10.367Z,15.835
2022-10-13T03:51:11.076Z,15.8158
2022-10-13T03:52:11.545Z,15.827
2022-10-13T03:53:10.872Z,15.839
2022-10-13T03:54:10.890Z,15.845
2022-10-13T03:55:11.457Z,15.833
2022-10-13T03:56:10.118Z,15.845
2022-10-13T03:57:11.772Z,15.839
2022-10-13T03:58:11.003Z,15.79
2022-10-13T03:59:10.267Z,15.8
2022-10-13T04:00:11.610Z,15.805
2022-10-13T04:01:10.649Z,15.816
2022-10-13T04:02:11.069Z,15.79
2022-10-13T04:03:12.012Z,15.8216
2022-10-13T04:04:09.945Z,15.81
2022-10-13T04:05:11.191Z,15.8
2022-10-13T04:06:11.115Z,15.816
2022-10-13T04:07:10.787Z,15.795
2022-10-13T04:08:11.271Z,15.827
2022-10-13T04:09:10.774Z,15.833
2022-10-13T04:10:11.617Z,15.845
2022-10-13T04:11:11.172Z,15.873
2022-10-13T04:12:11.199Z,15.867
2022-10-13T04:13:10.566Z,15.862
2022-10-13T04:14:10.674Z,15.895
2022-10-13T04:15:11.430Z,15.905
2022-10-13T04:16:11.217Z,15.89
2022-10-13T04:17:11.555Z,15.92
2022-10-13T04:18:11.245Z,15.955
2022-10-13T04:19:10.080Z,15.955
2022-10-13T04:20:10.621Z,15.98
2022-10-13T04:21:11.097Z,15.98
2022-10-13T04:22:10.897Z,15.985
2022-10-13T04:23:11.703Z,16
2022-10-13T04:24:10.359Z,15.995
2022-10-13T04:25:11.089Z,15.99
2022-10-13T04:26:11.397Z,16
2022-10-13T04:27:11.043Z,16
2022-10-13T04:28:10.513Z,16
2022-10-13T04:29:10.398Z,15.995
2022-10-13T04:30:13.502Z,15.99
2022-10-13T04:31:11.757Z,15.985
2022-10-13T04:32:11.394Z,15.99
2022-10-13T04:33:10.744Z,16
2022-10-13T04:34:10.769Z,15.965
2022-10-13T04:35:10.950Z,15.98
2022-10-13T04:36:10.833Z,15.995
2022-10-13T04:37:10.867Z,15.985
2022-10-13T04:38:10.857Z,15.96
2022-10-13T04:39:10.644Z,15.935
2022-10-13T04:40:11.441Z,15.94
2022-10-13T04:41:11.068Z,15.95
2022-10-13T04:42:11.328Z,15.95
2022-10-13T04:43:11.535Z,15.945
2022-10-13T04:44:10.119Z,15.925
2022-10-13T04:45:11.683Z,15.935
2022-10-13T04:46:11.182Z,15.945
2022-10-13T04:47:10.970Z,15.94
2022-10-13T04:48:11.449Z,15.92
2022-10-13T04:49:10.362Z,15.935
2022-10-13T04:50:10.727Z,15.92
2022-10-13T04:51:11.274Z,15.93
2022-10-13T04:52:10.663Z,15.92
2022-10-13T04:53:10.197Z,15.905
2022-10-13T04:54:10.638Z,15.899
2022-10-13T04:55:11.151Z,15.89
2022-10-13T04:56:10.755Z,15.856
2022-10-13T04:57:11.186Z,15.8741
2022-10-13T04:58:10.391Z,15.8741
2022-10-13T04:59:09.750Z,15.885
2022-10-13T05:00:11.792Z,15.9
2022-10-13T05:01:10.686Z,15.884
2022-10-13T05:02:10.546Z,15.8683
2022-10-13T05:03:11.706Z,15.85
2022-10-13T05:04:10.113Z,15.88
2022-10-13T05:05:10.760Z,15.829
2022-10-13T05:06:11.137Z,15.842
2022-10-13T05:07:17.836Z,15.86
2022-10-13T05:08:11.458Z,15.847
2022-10-13T05:09:10.409Z,15.8854
2022-10-13T05:10:10.007Z,15.89
2022-10-13T05:11:10.984Z,15.916
2022-10-13T05:12:11.020Z,15.9018
2022-10-13T05:13:10.506Z,15.889
2022-10-13T05:14:10.020Z,15.856
2022-10-13T05:15:11.259Z,15.867
2022-10-13T05:16:09.830Z,15.884
2022-10-13T05:17:10.924Z,15.883
2022-10-13T05:18:10.237Z,15.91
2022-10-13T05:19:09.401Z,15.915
2022-10-13T05:20:10.078Z,15.93
2022-10-13T05:21:10.364Z,15.91
2022-10-13T05:22:10.293Z,15.935
2022-10-13T05:23:11.100Z,15.94
2022-10-13T05:24:10.027Z,15.935
2022-10-13T05:25:11.385Z,15.94
2022-10-13T05:26:10.494Z,15.93
2022-10-13T05:27:10.398Z,15.93
2022-10-13T05:28:11.588Z,15.94
2022-10-13T05:29:10.306Z,15.925
2022-10-13T05:30:10.030Z,15.94
2022-10-13T05:31:11.460Z,15.93
2022-10-13T05:32:10.941Z,15.93
2022-10-13T05:33:11.854Z,15.91
2022-10-13T05:34:09.994Z,15.9
2022-10-13T05:35:10.512Z,15.89
2022-10-13T05:36:10.359Z,15.91
2022-10-13T05:37:11.050Z,15.905
2022-10-13T05:38:11.406Z,15.93
2022-10-13T05:39:09.670Z,15.93
2022-10-13T05:40:11.201Z,15.905
2022-10-13T05:41:11.124Z,15.915
2022-10-13T05:42:10.131Z,15.895
2022-10-13T05:43:11.245Z,15.91
2022-10-13T05:44:09.838Z,15.9
2022-10-13T05:45:10.690Z,15.905
2022-10-13T05:46:10.807Z,15.895
2022-10-13T05:47:10.309Z,15.925
2022-10-13T05:48:10.485Z,15.92
2022-10-13T05:49:10.433Z,15.91
2022-10-13T05:50:10.078Z,15.905
2022-10-13T05:51:11.730Z,15.895
2022-10-13T05:52:10.566Z,15.895
2022-10-13T05:53:11.566Z,15.895
2022-10-13T05:54:11.344Z,15.895
2022-10-13T05:55:10.948Z,15.873
2022-10-13T05:56:11.621Z,15.885
2022-10-13T05:57:11.019Z,15.88
2022-10-13T05:58:11.080Z,15.91
2022-10-13T05:59:10.429Z,15.91
2022-10-13T06:00:10.994Z,15.861
2022-10-13T06:01:11.305Z,15.8791
2022-10-13T06:02:11.217Z,15.862
2022-10-13T06:03:10.840Z,15.8741
2022-10-13T06:04:10.763Z,15.88
2022-10-13T06:05:10.754Z,15.885
2022-10-13T06:06:11.598Z,15.89
2022-10-13T06:07:10.407Z,15.92
2022-10-13T06:08:10.768Z,15.94
2022-10-13T06:09:10.812Z,15.94
2022-10-13T06:10:10.979Z,15.95
2022-10-13T06:11:10.680Z,15.95
2022-10-13T06:12:11.183Z,15.965
2022-10-13T06:13:11.411Z,15.96
2022-10-13T06:14:09.729Z,15.965
2022-10-13T06:15:11.764Z,15.985
2022-10-13T06:16:11.063Z,15.97
2022-10-13T06:17:10.361Z,15.975
2022-10-13T06:18:11.316Z,15.995
2022-10-13T06:19:09.900Z,16
2022-10-13T06:20:11.124Z,16.005
2022-10-13T06:21:10.850Z,16.03
2022-10-13T06:22:09.983Z,16.015
2022-10-13T06:23:11.227Z,16.015
2022-10-13T06:24:10.003Z,16.035
2022-10-13T06:25:11.099Z,16.049
2022-10-13T06:26:11.279Z,16.036
2022-10-13T06:27:11.076Z,16.04
2022-10-13T06:28:11.007Z,16.0545
2022-10-13T06:29:10.720Z,16.055
2022-10-13T06:30:11.071Z,16.0818
2022-10-13T06:31:10.829Z,16.085
2022-10-13T06:32:10.938Z,16.116
2022-10-13T06:33:11.166Z,16.151
2022-10-13T06:34:10.559Z,16.167
2022-10-13T06:35:11.399Z,16.1772
2022-10-13T06:36:10.525Z,16.149
2022-10-13T06:37:12.452Z,16.152
2022-10-13T06:38:11.389Z,16.182
2022-10-13T06:39:10.017Z,16.21
2022-10-13T06:40:11.370Z,16.22
2022-10-13T06:41:11.692Z,16.27
2022-10-13T06:42:10.494Z,16.27
2022-10-13T06:43:11.231Z,16.28
2022-10-13T06:44:10.353Z,16.316
2022-10-13T06:45:11.141Z,16.3158
2022-10-13T06:46:11.518Z,16.3741
2022-10-13T06:47:11.207Z,16.384
2022-10-13T06:48:10.537Z,16.395
2022-10-13T06:49:10.521Z,16.41
2022-10-13T06:50:10.695Z,16.455
2022-10-13T06:51:10.620Z,16.445
2022-10-13T06:52:11.411Z,16.47
2022-10-13T06:53:11.389Z,16.475
2022-10-13T06:54:09.773Z,16.475
2022-10-13T06:55:11.614Z,16.495
2022-10-13T06:56:11.024Z,16.52
2022-10-13T06:57:10.298Z,16.535
2022-10-13T06:58:11.263Z,16.56
2022-10-13T06:59:10.439Z,16.565
2022-10-13T07:00:11.220Z,16.59
2022-10-13T07:01:11.214Z,16.627
2022-10-13T07:02:11.043Z,16.649
2022-10-13T07:03:11.683Z,16.649
2022-10-13T07:04:10.524Z,16.699
2022-10-13T07:05:11.058Z,16.705
2022-10-13T07:06:11.650Z,16.74
2022-10-13T07:07:11.495Z,16.755
2022-10-13T07:08:11.080Z,16.795
2022-10-13T07:09:10.970Z,16.785
2022-10-13T07:10:12.273Z,16.816
2022-10-13T07:11:15.595Z,16.862
2022-10-13T07:12:11.418Z,16.867
2022-10-13T07:13:11.654Z,16.89
2022-10-13T07:14:09.971Z,16.89
2022-10-13T07:15:12.129Z,16.93
2022-10-13T07:16:11.324Z,16.96
2022-10-13T07:17:11.108Z,16.95
2022-10-13T07:18:11.286Z,16.995
2022-10-13T07:19:10.396Z,17.02
2022-10-13T07:20:11.203Z,17.015
2022-10-13T07:21:11.765Z,17.015
2022-10-13T07:22:10.724Z,17.03
2022-10-13T07:23:10.912Z,17.065
2022-10-13T07:24:11.506Z,17.09
2022-10-13T07:25:11.070Z,17.144
2022-10-13T07:26:10.859Z,17.172
2022-10-13T07:27:11.227Z,17.21
2022-10-13T07:28:10.884Z,17.225
2022-10-13T07:29:10.632Z,17.27
2022-10-13T07:30:11.581Z,17.285
2022-10-13T07:31:11.213Z,17.317
2022-10-13T07:32:10.497Z,17.361
2022-10-13T07:33:11.394Z,17.405
2022-10-13T07:34:10.027Z,17.445
2022-10-13T07:35:11.842Z,17.465
2022-10-13T07:36:10.992Z,17.51
2022-10-13T07:37:11.021Z,17.54
2022-10-13T07:38:11.790Z,17.575
2022-10-13T07:39:10.689Z,17.615
2022-10-13T07:40:10.758Z,17.655
2022-10-13T07:41:11.391Z,17.66
2022-10-13T07:42:11.199Z,17.694
2022-10-13T07:43:11.362Z,17.725
2022-10-13T07:44:10.961Z,17.75
2022-10-13T07:45:11.278Z,17.775
2022-10-13T07:46:10.631Z,17.8108
2022-10-13T07:47:11.647Z,17.805
2022-10-13T07:48:11.252Z,17.833
2022-10-13T07:49:12.492Z,17.848
2022-10-13T07:50:11.671Z,17.863
2022-10-13T07:51:11.515Z,17.8108
2022-10-13T07:52:10.938Z,17.8109
2022-10-13T07:53:11.455Z,17.8207
2022-10-13T07:54:10.066Z,17.879
2022-10-13T07:55:11.240Z,17.861
2022-10-13T07:56:11.243Z,17.8938
2022-10-13T07:57:11.187Z,17.9018
2022-10-13T07:58:11.666Z,17.8984
2022-10-13T07:59:10.587Z,17.9236
2022-10-13T08:00:10.672Z,17.93
2022-10-13T08:01:11.614Z,17.95
2022-10-13T08:02:11.111Z,17.975
2022-10-13T08:03:11.190Z,17.975
2022-10-13T08:04:10.836Z,18.01
2022-10-13T08:05:11.301Z,18.01
2022-10-13T08:06:10.733Z,18.015
2022-10-13T08:07:10.989Z,18.03
2022-10-13T08:08:11.076Z,18.025
2022-10-13T08:09:09.614Z,17.995
2022-10-13T08:10:11.436Z,18.025
2022-10-13T08:11:13.444Z,18.06
2022-10-13T08:12:10.117Z,18.09
2022-10-13T08:13:11.578Z,18.105
2022-10-13T08:14:11.151Z,18.126
2022-10-13T08:15:10.673Z,18.143
2022-10-13T08:16:11.628Z,18.172
2022-10-13T08:17:11.144Z,18.205
2022-10-13T08:18:10.028Z,18.265
2022-10-13T08:19:11.195Z,18.307
2022-10-13T08:20:10.352Z,18.339
2022-10-13T08:21:39.194Z,18.4
2022-10-13T08:22:11.264Z,18.46
2022-10-13T08:23:11.145Z,18.505
2022-10-13T08:24:11.216Z,18.555
2022-10-13T08:25:11.792Z,18.626
2022-10-13T08:26:10.452Z,18.671
2022-10-13T08:27:11.699Z,18.71
2022-10-13T08:28:11.260Z,18.76
2022-10-13T08:29:22.946Z,18.8
2022-10-13T08:30:11.050Z,18.839
2022-10-13T08:31:11.036Z,18.85
2022-10-13T08:32:10.662Z,18.915
2022-10-13T08:33:11.650Z,18.945
2022-10-13T08:34:11.186Z,18.99
2022-10-13T08:35:11.406Z,19.035
2022-10-13T08:36:10.772Z,19.075
2022-10-13T08:37:11.296Z,19.1208
2022-10-13T08:38:10.529Z,19.1783
2022-10-13T08:39:11.483Z,19.225
2022-10-13T08:40:11.338Z,19.28
2022-10-13T08:41:11.026Z,19.3
2022-10-13T08:42:12.008Z,19.373
2022-10-13T08:43:11.234Z,19.415
2022-10-13T08:44:49.899Z,19.45
2022-10-13T08:45:44.565Z,19.49
2022-10-13T08:46:11.238Z,19.525
2022-10-13T08:47:12.408Z,19.55
2022-10-13T08:48:11.728Z,19.6
2022-10-13T08:49:11.223Z,19.643
2022-10-13T08:50:10.826Z,19.688
2022-10-13T08:51:11.376Z,19.75
2022-10-13T08:52:10.730Z,19.79
2022-10-13T08:53:11.512Z,19.85
2022-10-13T08:54:10.842Z,19.872
2022-10-13T08:55:11.258Z,19.915
2022-10-13T08:56:11.780Z,19.935
2022-10-13T08:57:11.075Z,19.975
2022-10-13T08:58:11.202Z,20.035
2022-10-13T08:59:11.728Z,20.055
2022-10-13T09:00:11.396Z,20.08
2022-10-13T09:01:11.176Z,20.126
2022-10-13T09:02:11.381Z,20.16
2022-10-13T09:03:11.369Z,20.245
2022-10-13T09:04:11.067Z,20.265
2022-10-13T09:05:11.707Z,20.3108
2022-10-13T09:06:10.990Z,20.361
2022-10-13T09:07:10.894Z,20.41
2022-10-13T09:08:11.384Z,20.44
2022-10-13T09:09:11.274Z,20.465
2022-10-13T09:10:10.920Z,20.505
2022-10-13T09:11:11.575Z,20.52
2022-10-13T09:12:11.444Z,20.55
2022-10-13T09:13:10.909Z,20.5709
2022-10-13T09:14:11.390Z,20.6015
2022-10-13T09:15:11.155Z,20.639
2022-10-13T09:16:09.833Z,20.6208
2022-10-13T09:17:11.359Z,20.6061
2022-10-13T09:18:11.002Z,20.6327
2022-10-13T09:19:10.629Z,20.615
2022-10-13T09:20:11.405Z,20.643
2022-10-13T09:21:10.889Z,20.6258
2022-10-13T09:22:11.888Z,20.646
2022-10-13T09:23:11.044Z,20.645
2022-10-13T09:24:11.122Z,20.6208
2022-10-13T09:25:11.499Z,20.59
2022-10-13T09:26:11.271Z,20.595
2022-10-13T09:27:11.808Z,20.626
2022-10-13T09:28:11.885Z,20.637
2022-10-13T09:29:11.024Z,20.66
2022-10-13T09:30:11.424Z,20.705
2022-10-13T09:31:13.857Z,20.69
2022-10-13T09:32:10.686Z,20.725
2022-10-13T09:33:11.492Z,20.735
2022-10-13T09:34:11.353Z,20.735
2022-10-13T09:35:10.836Z,20.725
2022-10-13T09:36:11.155Z,20.75
2022-10-13T09:37:11.109Z,20.77
2022-10-13T09:38:11.874Z,20.78
2022-10-13T09:39:11.113Z,20.78
2022-10-13T09:40:10.319Z,20.79
2022-10-13T09:41:11.726Z,20.801
2022-10-13T09:42:10.407Z,20.8216
2022-10-13T09:43:11.734Z,20.839
2022-10-13T09:44:11.467Z,20.885
2022-10-13T09:45:11.139Z,20.91
2022-10-13T09:46:11.761Z,20.94
2022-10-13T09:47:11.030Z,20.935
2022-10-13T09:48:11.108Z,20.94
2022-10-13T09:49:11.588Z,20.94
2022-10-13T09:50:11.073Z,20.995
2022-10-13T09:51:10.697Z,21.02
2022-10-13T09:52:11.722Z,21.04
2022-10-13T09:53:10.741Z,21.06
2022-10-13T09:54:10.712Z,21.095
2022-10-13T09:55:11.545Z,21.095
2022-10-13T09:56:11.115Z,21.1316
2022-10-13T09:57:11.538Z,21.166
2022-10-13T09:58:11.469Z,21.155
2022-10-13T09:59:12.079Z,21.166
2022-10-13T10:00:11.674Z,21.155
2022-10-13T10:01:11.167Z,21.1841
2022-10-13T10:02:13.381Z,21.16
2022-10-13T10:03:11.362Z,21.171
2022-10-13T10:04:11.024Z,21.19
2022-10-13T10:05:11.945Z,21.19
2022-10-13T10:06:11.502Z,21.199
2022-10-13T10:07:10.842Z,21.177
2022-10-13T10:08:11.859Z,21.205
2022-10-13T10:09:11.162Z,21.224
2022-10-13T10:10:10.895Z,21.255
2022-10-13T10:11:11.714Z,21.265
2022-10-13T10:12:11.107Z,21.29
2022-10-13T10:13:11.092Z,21.3
2022-10-13T10:14:11.637Z,21.29
2022-10-13T10:15:11.772Z,21.3108
2022-10-13T10:16:10.866Z,21.3158
2022-10-13T10:17:11.430Z,21.334
2022-10-13T10:18:10.992Z,21.356
2022-10-13T10:19:12.492Z,21.385
2022-10-13T10:20:11.223Z,21.41
2022-10-13T10:21:10.991Z,21.455
2022-10-13T10:22:11.171Z,21.485
2022-10-13T10:23:10.938Z,21.52
2022-10-13T10:24:10.763Z,21.55
2022-10-13T10:25:11.679Z,21.585
2022-10-13T10:26:11.126Z,21.62
2022-10-13T10:27:10.893Z,21.666
2022-10-13T10:28:13.051Z,21.6783
2022-10-13T10:29:11.027Z,21.69
2022-10-13T10:30:10.309Z,21.72
2022-10-13T10:31:11.418Z,21.75
2022-10-13T10:32:10.628Z,21.765
2022-10-13T10:33:10.557Z,21.7772
2022-10-13T10:34:14.901Z,21.782
2022-10-13T10:35:10.810Z,21.7827
2022-10-13T10:36:10.749Z,21.78
2022-10-13T10:37:11.549Z,21.7961
2022-10-13T10:38:10.961Z,21.7718
2022-10-13T10:39:10.746Z,21.785
2022-10-13T10:40:11.205Z,21.78
2022-10-13T10:41:10.975Z,21.79
2022-10-13T10:42:11.281Z,21.8107
2022-10-13T10:43:11.349Z,21.8672
2022-10-13T10:44:11.033Z,21.91
2022-10-13T10:45:11.935Z,21.94
2022-10-13T10:46:11.203Z,21.94
2022-10-13T10:47:11.009Z,21.97
2022-10-13T10:48:11.929Z,21.99
2022-10-13T10:49:11.338Z,22.025
2022-10-13T10:50:11.137Z,22.03
2022-10-13T10:51:11.865Z,22.005
2022-10-13T10:52:11.660Z,21.985
2022-10-13T10:53:11.241Z,21.95
2022-10-13T10:54:11.190Z,21.945
2022-10-13T10:55:11.176Z,21.93
2022-10-13T10:56:10.690Z,21.905
2022-10-13T10:57:11.442Z,21.856
2022-10-13T10:58:11.135Z,21.844
2022-10-13T10:59:10.535Z,21.862
2022-10-13T11:00:11.590Z,21.867
2022-10-13T11:01:11.124Z,21.884
2022-10-13T11:02:10.457Z,21.862
2022-10-13T11:03:11.369Z,21.8
2022-10-13T11:04:10.511Z,21.795
2022-10-13T11:05:11.500Z,21.775
2022-10-13T11:06:10.574Z,21.76
2022-10-13T11:07:11.023Z,21.765
2022-10-13T11:08:10.903Z,21.805
2022-10-13T11:09:11.591Z,21.828
2022-10-13T11:10:10.902Z,21.845
2022-10-13T11:11:11.700Z,21.8741
2022-10-13T11:12:11.416Z,21.91
2022-10-13T11:13:10.662Z,21.915
2022-10-13T11:14:11.930Z,21.915
2022-10-13T11:15:11.728Z,21.945
2022-10-13T11:16:11.107Z,21.915
2022-10-13T11:17:10.260Z,21.885
2022-10-13T11:18:10.519Z,21.885
2022-10-13T11:19:10.865Z,21.873
2022-10-13T11:20:10.770Z,21.89
2022-10-13T11:21:12.334Z,21.885
2022-10-13T11:22:11.633Z,21.94
2022-10-13T11:23:11.403Z,21.9
2022-10-13T11:24:10.455Z,21.91
2022-10-13T11:25:11.474Z,21.93
2022-10-13T11:26:11.336Z,21.94
2022-10-13T11:27:10.216Z,21.94
2022-10-13T11:28:11.945Z,21.94
2022-10-13T11:29:11.324Z,21.93
2022-10-13T11:30:11.100Z,21.95
2022-10-13T11:31:10.981Z,21.915
2022-10-13T11:32:10.688Z,21.935
2022-10-13T11:33:10.742Z,21.935
2022-10-13T11:34:11.057Z,21.93
2022-10-13T11:35:11.301Z,21.915
2022-10-13T11:36:10.797Z,21.91
2022-10-13T11:37:11.413Z,21.905
2022-10-13T11:38:15.325Z,21.915
2022-10-13T11:39:10.336Z,21.905
2022-10-13T11:40:11.030Z,21.925
2022-10-13T11:41:11.550Z,21.96
2022-10-13T11:42:10.235Z,21.99
2022-10-13T11:43:11.254Z,22.01
2022-10-13T11:44:10.676Z,22.04
2022-10-13T11:45:10.611Z,22.075
2022-10-13T11:46:11.107Z,22.1258
2022-10-13T11:47:11.171Z,22.085
2022-10-13T11:48:10.611Z,22.115
2022-10-13T11:49:11.193Z,22.11
2022-10-13T11:50:10.840Z,22.11
2022-10-13T11:51:14.002Z,22.115
2022-10-13T11:52:10.739Z,22.095
2022-10-13T11:53:11.160Z,22.07
2022-10-13T11:54:11.579Z,22.07
2022-10-13T11:55:11.315Z,22.045
2022-10-13T11:56:10.644Z,22.0381
2022-10-13T11:57:11.605Z,22.06
2022-10-13T11:58:10.808Z,22.0436
2022-10-13T11:59:11.550Z,22.036
2022-10-13T12:00:10.561Z,22.035
2022-10-13T12:01:10.573Z,22.0218
2022-10-13T12:02:11.607Z,22.0184
2022-10-13T12:03:11.989Z,22.015
2022-10-13T12:04:10.624Z,21.9945
2022-10-13T12:05:11.433Z,21.99
2022-10-13T12:06:10.886Z,21.9836
2022-10-13T12:07:10.885Z,21.97
2022-10-13T12:08:11.161Z,21.95
2022-10-13T12:09:11.274Z,21.93
2022-10-13T12:10:10.591Z,21.94
2022-10-13T12:11:11.140Z,21.91
2022-10-13T12:12:10.942Z,21.92
2022-10-13T12:13:10.848Z,21.915
2022-10-13T12:14:11.491Z,21.895
2022-10-13T12:15:10.984Z,21.8791
2022-10-13T12:16:11.589Z,21.8683
2022-10-13T12:17:13.989Z,21.862
2022-10-13T12:18:11.028Z,21.827
2022-10-13T12:19:10.809Z,21.8158
2022-10-13T12:20:11.440Z,21.795
2022-10-13T12:21:10.138Z,21.785
2022-10-13T12:22:10.898Z,21.755
2022-10-13T12:23:10.336Z,21.775
2022-10-13T12:24:10.183Z,21.755
2022-10-13T12:25:11.668Z,21.76
2022-10-13T12:26:11.085Z,21.704
2022-10-13T12:27:10.648Z,21.655
2022-10-13T12:28:11.176Z,21.649
2022-10-13T12:29:11.478Z,21.6258
2022-10-13T12:30:10.216Z,21.62
2022-10-13T12:31:11.123Z,21.59
2022-10-13T12:32:10.579Z,21.535
2022-10-13T12:33:10.122Z,21.475
2022-10-13T12:34:11.247Z,21.405
2022-10-13T12:35:11.321Z,21.339